Time;durP1;ratioP1;P1;durP2;ratioP2;P2;SDS_P1;SDS_P2;PMS_P1;PMS_P2;Temp;Humidity;BMP_temperature;BMP_pressure;BME280_temperature;BME280_humidity;BME280_pressure;Samples;Min_cycle;Max_cycle;Signal;HPM_P1;HPM_P2
2021/07/12 00:01:04;;;;;;;3.20;3.00;;;;;;;;;;4996149;28;20256;-80
2021/07/12 00:03:31;;;;;;;3.93;3.03;;;;;;;;;;4994127;28;20244;-80
2021/07/12 00:05:58;;;;;;;3.30;3.10;;;;;;;;;;5010545;28;20205;-81
2021/07/12 00:08:24;;;;;;;3.07;2.87;;;;;;;;;;5010890;28;20241;-80
2021/07/12 00:10:52;;;;;;;3.53;3.20;;;;;;;;;;4994280;28;20693;-80
2021/07/12 00:13:19;;;;;;;3.23;3.00;;;;;;;;;;4995911;28;20288;-80
2021/07/12 00:15:46;;;;;;;3.63;3.37;;;;;;;;;;4995658;28;20250;-80
2021/07/12 00:18:12;;;;;;;3.40;3.20;;;;;;;;;;4995772;28;20209;-80
2021/07/12 00:20:39;;;;;;;3.67;3.10;;;;;;;;;;4995744;28;20234;-80
2021/07/12 00:23:06;;;;;;;5.17;3.53;;;;;;;;;;5010540;28;20209;-80
2021/07/12 00:25:32;;;;;;;3.43;3.13;;;;;;;;;;4994096;28;20241;-80
2021/07/12 00:28:01;;;;;;;4.10;3.30;;;;;;;;;;4995858;28;20213;-80
2021/07/12 00:30:28;;;;;;;3.30;3.00;;;;;;;;;;4993935;28;20313;-80
2021/07/12 00:32:56;;;;;;;4.80;3.20;;;;;;;;;;4995508;28;20664;-80
2021/07/12 00:35:23;;;;;;;4.10;3.07;;;;;;;;;;4995318;28;20624;-80
2021/07/12 00:37:49;;;;;;;3.63;3.33;;;;;;;;;;4995110;28;20260;-80
2021/07/12 00:40:17;;;;;;;4.20;3.80;;;;;;;;;;4994034;28;20189;-80
2021/07/12 00:42:44;;;;;;;4.20;3.90;;;;;;;;;;5010217;28;20205;-80
2021/07/12 00:45:13;;;;;;;3.73;3.53;;;;;;;;;;4995669;28;20241;-80
2021/07/12 00:47:40;;;;;;;3.47;3.23;;;;;;;;;;4995332;28;20245;-80
2021/07/12 00:50:08;;;;;;;5.37;3.17;;;;;;;;;;4993905;28;20260;-80
2021/07/12 00:52:35;;;;;;;5.73;3.53;;;;;;;;;;4994642;28;20257;-80
2021/07/12 00:55:05;;;;;;;3.80;3.50;;;;;;;;;;4994279;28;20598;-80
2021/07/12 00:57:31;;;;;;;5.33;3.80;;;;;;;;;;4995049;28;20241;-81
2021/07/12 00:59:58;;;;;;;4.20;3.90;;;;;;;;;;4994920;28;20201;-80
2021/07/12 01:02:26;;;;;;;3.70;3.40;;;;;;;;;;4995031;28;20233;-79
2021/07/12 01:04:54;;;;;;;3.67;3.30;;;;;;;;;;4995222;28;20233;-80
2021/07/12 01:07:20;;;;;;;3.53;3.33;;;;;;;;;;4995006;28;20210;-79
2021/07/12 01:09:47;;;;;;;3.80;3.50;;;;;;;;;;5009465;28;20214;-80
2021/07/12 01:12:21;;;;;;;6.20;3.70;;;;;;;;;;4994432;28;20261;-79
2021/07/12 01:14:51;;;;;;;3.50;3.20;;;;;;;;;;4994751;28;20611;-80
2021/07/12 01:17:19;;;;;;;3.87;3.60;;;;;;;;;;5009631;28;20264;-80
2021/07/12 01:20:07;;;;;;;3.97;3.67;;;;;;;;;;4994336;28;20241;-80
2021/07/12 01:22:43;;;;;;;4.00;3.60;;;;;;;;;;4994336;28;20352;-80
2021/07/12 01:25:39;;;;;;;4.37;3.80;;;;;;;;;;4994518;28;20600;-80
2021/07/12 01:28:24;;;;;;;9.37;4.20;;;;;;;;;;5009627;28;20206;-80
2021/07/12 01:31:21;;;;;;;4.10;3.70;;;;;;;;;;4994379;28;20253;-80
2021/07/12 01:33:50;;;;;;;3.73;3.30;;;;;;;;;;4994050;28;20249;-79
2021/07/12 01:36:33;;;;;;;3.20;3.10;;;;;;;;;;4994171;28;20182;-80
2021/07/12 01:39:04;;;;;;;4.00;3.70;;;;;;;;;;4994348;28;20213;-80
2021/07/12 01:41:34;;;;;;;3.60;3.33;;;;;;;;;;4994270;28;20214;-80
2021/07/12 01:44:03;;;;;;;3.80;3.40;;;;;;;;;;4994422;28;20237;-80
2021/07/12 01:46:33;;;;;;;5.63;3.50;;;;;;;;;;4994092;28;20288;-80
2021/07/12 01:49:05;;;;;;;3.33;3.13;;;;;;;;;;4994074;28;20217;-80
2021/07/12 01:51:33;;;;;;;3.40;3.30;;;;;;;;;;4993504;28;20265;-80
2021/07/12 01:54:04;;;;;;;3.50;3.30;;;;;;;;;;4992214;28;20202;-80
2021/07/12 01:56:32;;;;;;;3.87;3.47;;;;;;;;;;5008315;28;20206;-80
2021/07/12 01:59:05;;;;;;;5.73;3.83;;;;;;;;;;4993498;28;20528;-80
2021/07/12 02:01:33;;;;;;;4.00;3.70;;;;;;;;;;5008586;28;20228;-80
2021/07/12 02:04:02;;;;;;;4.53;3.90;;;;;;;;;;4993719;28;20206;-79
2021/07/12 02:06:29;;;;;;;3.90;3.60;;;;;;;;;;4992670;28;20241;-79
2021/07/12 02:08:57;;;;;;;4.67;3.73;;;;;;;;;;4993835;28;20241;-80
2021/07/12 02:11:24;;;;;;;3.77;3.43;;;;;;;;;;4993417;28;20225;-80
2021/07/12 02:13:51;;;;;;;4.77;3.10;;;;;;;;;;4993644;28;20635;-79
2021/07/12 02:16:19;;;;;;;4.30;3.57;;;;;;;;;;4993381;28;20217;-80
2021/07/12 02:18:46;;;;;;;4.10;3.70;;;;;;;;;;4993448;28;20213;-79
2021/07/12 02:21:15;;;;;;;3.33;3.13;;;;;;;;;;4991910;28;20190;-79
2021/07/12 02:23:43;;;;;;;3.57;3.37;;;;;;;;;;4993043;28;20244;-79
2021/07/12 02:26:10;;;;;;;4.00;3.60;;;;;;;;;;4993551;28;20736;-79
2021/07/12 02:28:41;;;;;;;3.90;3.60;;;;;;;;;;5008159;28;20229;-79
2021/07/12 02:31:08;;;;;;;4.17;3.77;;;;;;;;;;4993217;28;20253;-79
2021/07/12 02:33:34;;;;;;;3.87;3.47;;;;;;;;;;5007974;28;20193;-79
2021/07/12 02:36:02;;;;;;;4.00;3.50;;;;;;;;;;4993083;28;20248;-79
2021/07/12 02:38:31;;;;;;;6.00;3.60;;;;;;;;;;4992937;28;20240;-79
2021/07/12 02:40:58;;;;;;;3.73;3.43;;;;;;;;;;5008114;28;20233;-79
2021/07/12 02:43:25;;;;;;;4.10;3.80;;;;;;;;;;5007708;28;20241;-81
2021/07/12 02:45:52;;;;;;;4.03;3.63;;;;;;;;;;4991667;28;20542;-79
2021/07/12 02:48:19;;;;;;;6.07;3.83;;;;;;;;;;4992956;28;20248;-79
2021/07/12 02:50:46;;;;;;;4.00;3.60;;;;;;;;;;5007726;28;20295;-79
2021/07/12 02:53:16;;;;;;;3.97;3.67;;;;;;;;;;4992457;28;20304;-80
2021/07/12 02:55:44;;;;;;;3.80;3.50;;;;;;;;;;5007887;28;20206;-79
2021/07/12 02:58:11;;;;;;;4.73;3.77;;;;;;;;;;4992932;28;20229;-79
2021/07/12 03:00:38;;;;;;;3.83;3.50;;;;;;;;;;4992672;28;20608;-79
2021/07/12 03:03:04;;;;;;;5.10;3.57;;;;;;;;;;4991258;28;20280;-79
2021/07/12 03:05:31;;;;;;;6.17;4.20;;;;;;;;;;4992592;28;20229;-79
2021/07/12 03:08:02;;;;;;;4.50;4.20;;;;;;;;;;4992630;28;20245;-79
2021/07/12 03:10:30;;;;;;;4.23;4.00;;;;;;;;;;4992770;28;20241;-79
2021/07/12 03:12:59;;;;;;;6.53;3.73;;;;;;;;;;4992365;28;20267;-79
2021/07/12 03:15:29;;;;;;;4.20;3.80;;;;;;;;;;4992850;28;20230;-80
2021/07/12 03:17:56;;;;;;;4.23;3.90;;;;;;;;;;4994113;28;20255;-80
2021/07/12 03:20:24;;;;;;;4.03;3.73;;;;;;;;;;4999182;28;20224;-79
2021/07/12 03:22:53;;;;;;;3.70;3.50;;;;;;;;;;5013750;28;20255;-79
2021/07/12 03:25:22;;;;;;;4.07;3.77;;;;;;;;;;5014072;28;20580;-79
2021/07/12 03:27:51;;;;;;;4.03;3.83;;;;;;;;;;4998531;28;20221;-79
2021/07/12 03:30:19;;;;;;;6.03;4.03;;;;;;;;;;5014192;28;20357;-79
2021/07/12 03:32:46;;;;;;;4.10;3.80;;;;;;;;;;4998607;28;20229;-79
2021/07/12 03:35:14;;;;;;;5.80;4.37;;;;;;;;;;4999207;28;20724;-80
2021/07/12 03:37:42;;;;;;;7.33;4.20;;;;;;;;;;4998752;28;20241;-79
2021/07/12 03:40:09;;;;;;;4.40;4.00;;;;;;;;;;4997438;28;20214;-79
2021/07/12 03:42:36;;;;;;;5.07;3.83;;;;;;;;;;4998487;28;20251;-79
2021/07/12 03:45:05;;;;;;;5.30;4.00;;;;;;;;;;5014591;28;20221;-80
2021/07/12 03:47:34;;;;;;;6.33;3.87;;;;;;;;;;4998888;28;20677;-79
2021/07/12 03:50:05;;;;;;;5.80;4.13;;;;;;;;;;4997280;28;20874;-79
2021/07/12 03:52:34;;;;;;;4.57;3.53;;;;;;;;;;5013343;28;20272;-79
2021/07/12 03:55:01;;;;;;;4.63;3.60;;;;;;;;;;4997572;28;20213;-79
2021/07/12 03:57:27;;;;;;;4.30;3.90;;;;;;;;;;5013247;28;20240;-79
2021/07/12 03:59:54;;;;;;;4.40;4.00;;;;;;;;;;4997648;28;20235;-79
2021/07/12 04:02:21;;;;;;;4.87;4.07;;;;;;;;;;5013418;28;20189;-79
2021/07/12 04:04:48;;;;;;;4.53;4.13;;;;;;;;;;4998763;28;20245;-79
2021/07/12 04:07:15;;;;;;;4.00;3.70;;;;;;;;;;4998648;28;20209;-78
2021/07/12 04:09:42;;;;;;;4.93;3.93;;;;;;;;;;5013927;28;20534;-78
2021/07/12 04:12:08;;;;;;;3.90;3.70;;;;;;;;;;4998473;28;20261;-78
2021/07/12 04:14:35;;;;;;;7.13;3.77;;;;;;;;;;4998456;28;20245;-77
2021/07/12 04:17:02;;;;;;;4.80;4.23;;;;;;;;;;4996679;28;20236;-78
2021/07/12 04:19:28;;;;;;;5.30;4.33;;;;;;;;;;5013601;28;20236;-78
2021/07/12 04:21:56;;;;;;;4.60;4.20;;;;;;;;;;4998703;28;20214;-78
2021/07/12 04:24:23;;;;;;;4.17;3.87;;;;;;;;;;5012964;28;20741;-78
2021/07/12 04:26:50;;;;;;;4.63;4.20;;;;;;;;;;4998412;28;20206;-78
2021/07/12 04:29:16;;;;;;;5.60;4.87;;;;;;;;;;4997200;28;20264;-77
2021/07/12 04:31:43;;;;;;;5.10;4.60;;;;;;;;;;4993121;28;20249;-78
2021/07/12 04:34:09;;;;;;;5.43;4.90;;;;;;;;;;4995609;28;20599;-77
2021/07/12 04:36:36;;;;;;;6.60;5.40;;;;;;;;;;4993288;28;20264;-78
2021/07/12 04:39:04;;;;;;;5.73;5.23;;;;;;;;;;4993774;28;20225;-78
2021/07/12 04:41:31;;;;;;;9.10;5.70;;;;;;;;;;4995382;28;20241;-78
2021/07/12 04:43:58;;;;;;;6.33;5.20;;;;;;;;;;4995207;28;20655;-78
2021/07/12 04:46:24;;;;;;;6.80;5.63;;;;;;;;;;5010186;28;20233;-79
2021/07/12 04:48:51;;;;;;;6.43;5.83;;;;;;;;;;5010163;28;20229;-78
2021/07/12 04:51:18;;;;;;;6.10;5.60;;;;;;;;;;4994769;28;20717;-78
2021/07/12 04:53:46;;;;;;;8.27;5.40;;;;;;;;;;4995250;28;20257;-78
2021/07/12 04:56:14;;;;;;;7.90;5.70;;;;;;;;;;5009486;28;20233;-79
2021/07/12 04:58:46;;;;;;;7.90;5.80;;;;;;;;;;4995138;28;20617;-79
2021/07/12 05:01:13;;;;;;;11.00;6.70;;;;;;;;;;4995059;28;20209;-79
2021/07/12 05:03:39;;;;;;;8.10;6.50;;;;;;;;;;5009891;28;20728;-80
2021/07/12 05:06:06;;;;;;;8.90;6.70;;;;;;;;;;5010185;28;20206;-82
2021/07/12 05:08:33;;;;;;;7.43;6.60;;;;;;;;;;5010234;28;20858;-82
2021/07/12 05:11:00;;;;;;;8.40;6.90;;;;;;;;;;4993660;28;20221;-83
2021/07/12 05:13:29;;;;;;;9.37;7.27;;;;;;;;;;5009278;28;20690;-83
2021/07/12 05:15:55;;;;;;;9.97;7.10;;;;;;;;;;4995438;28;20674;-80
2021/07/12 05:18:22;;;;;;;8.30;7.60;;;;;;;;;;4995128;28;20237;-80
2021/07/12 05:20:51;;;;;;;9.23;7.00;;;;;;;;;;4994803;28;20256;-80
2021/07/12 05:23:17;;;;;;;11.03;7.37;;;;;;;;;;4994031;28;20238;-79
2021/07/12 05:25:44;;;;;;;11.00;8.00;;;;;;;;;;5009540;28;20233;-80
2021/07/12 05:28:11;;;;;;;9.83;8.00;;;;;;;;;;4994078;28;20264;-80
2021/07/12 05:30:39;;;;;;;8.20;7.37;;;;;;;;;;4994284;28;20264;-81
2021/07/12 05:33:07;;;;;;;10.27;7.70;;;;;;;;;;4994228;28;20258;-80
2021/07/12 05:35:33;;;;;;;9.27;8.33;;;;;;;;;;4994228;28;20213;-80
2021/07/12 05:38:00;;;;;;;10.47;8.87;;;;;;;;;;4994002;28;20689;-80
2021/07/12 05:40:27;;;;;;;10.03;9.00;;;;;;;;;;5008645;28;20760;-80
2021/07/12 05:42:53;;;;;;;14.33;10.77;;;;;;;;;;5009118;28;20607;-82
2021/07/12 05:45:20;;;;;;;10.07;9.07;;;;;;;;;;4994645;28;20710;-79
2021/07/12 05:47:48;;;;;;;14.93;9.97;;;;;;;;;;4992475;28;20662;-82
2021/07/12 05:50:15;;;;;;;15.60;9.60;;;;;;;;;;4994494;28;20265;-80
2021/07/12 05:52:42;;;;;;;11.97;10.50;;;;;;;;;;5008911;28;20261;-81
2021/07/12 05:55:09;;;;;;;13.10;10.03;;;;;;;;;;5009153;28;20241;-81
2021/07/12 05:57:36;;;;;;;10.27;9.07;;;;;;;;;;4993791;28;20248;-81
2021/07/12 06:00:04;;;;;;;11.40;10.20;;;;;;;;;;4992260;28;20570;-81
2021/07/12 06:02:31;;;;;;;13.73;9.90;;;;;;;;;;4993598;28;20236;-81
2021/07/12 06:04:59;;;;;;;10.80;9.83;;;;;;;;;;4993880;28;20248;-82
2021/07/12 06:07:26;;;;;;;10.57;9.53;;;;;;;;;;4993607;28;20244;-81
2021/07/12 06:09:53;;;;;;;10.23;9.13;;;;;;;;;;4993887;28;20313;-81
2021/07/12 06:12:19;;;;;;;9.67;8.67;;;;;;;;;;4993471;28;20216;-81
2021/07/12 06:14:46;;;;;;;12.13;9.17;;;;;;;;;;4993531;28;20205;-81
2021/07/12 06:17:13;;;;;;;9.73;8.73;;;;;;;;;;4993728;28;20248;-81
2021/07/12 06:19:39;;;;;;;9.30;8.40;;;;;;;;;;4991939;28;20209;-82
2021/07/12 06:22:08;;;;;;;9.67;8.17;;;;;;;;;;5008548;28;20201;-81
2021/07/12 06:24:35;;;;;;;14.27;8.07;;;;;;;;;;4992091;28;20226;-81
2021/07/12 06:27:01;;;;;;;8.77;8.03;;;;;;;;;;4992447;28;20769;-82
2021/07/12 06:29:29;;;;;;;8.20;7.40;;;;;;;;;;5008543;28;20205;-82
2021/07/12 06:31:56;;;;;;;8.30;7.50;;;;;;;;;;4993764;28;20241;-82
2021/07/12 06:34:22;;;;;;;8.07;7.37;;;;;;;;;;4993549;28;20253;-81
2021/07/12 06:36:49;;;;;;;7.97;7.27;;;;;;;;;;4993298;28;20237;-82
2021/07/12 06:39:17;;;;;;;7.00;6.30;;;;;;;;;;4993531;28;20306;-83
2021/07/12 06:41:44;;;;;;;7.60;6.90;;;;;;;;;;4992862;28;20233;-82
2021/07/12 06:44:11;;;;;;;10.33;6.67;;;;;;;;;;5008328;28;20232;-83
2021/07/12 06:46:38;;;;;;;8.27;7.05;;;;;;;;;;4992907;28;20214;-83
2021/07/12 06:49:05;;;;;;;7.53;6.57;;;;;;;;;;4993232;28;20240;-82
2021/07/12 06:51:31;;;;;;;7.43;6.57;;;;;;;;;;4992617;28;20245;-83
2021/07/12 06:54:00;;;;;;;8.73;6.17;;;;;;;;;;4992906;28;20253;-83
2021/07/12 06:56:28;;;;;;;8.30;6.30;;;;;;;;;;4992705;28;20221;-81
2021/07/12 06:58:54;;;;;;;9.87;6.90;;;;;;;;;;4993181;28;20237;-82
2021/07/12 07:01:21;;;;;;;6.37;5.10;;;;;;;;;;4992752;28;20206;-82
2021/07/12 07:03:48;;;;;;;10.03;6.80;;;;;;;;;;4993226;28;20234;-82
2021/07/12 07:06:15;;;;;;;6.97;6.27;;;;;;;;;;4991419;28;20209;-82
2021/07/12 07:08:41;;;;;;;8.27;7.30;;;;;;;;;;5007763;28;20220;-82
2021/07/12 07:11:08;;;;;;;10.90;6.50;;;;;;;;;;4992644;28;20241;-82
2021/07/12 07:13:36;;;;;;;4.23;3.93;;;;;;;;;;4992543;28;20257;-82
2021/07/12 07:16:03;;;;;;;3.87;3.57;;;;;;;;;;4993027;28;20246;-81
2021/07/12 07:18:30;;;;;;;3.00;2.80;;;;;;;;;;5007716;28;20252;-82
2021/07/12 07:20:57;;;;;;;3.70;2.73;;;;;;;;;;5007226;28;20230;-83
2021/07/12 07:23:24;;;;;;;5.13;3.63;;;;;;;;;;4992517;28;20244;-82
2021/07/12 07:25:50;;;;;;;6.87;3.23;;;;;;;;;;5007380;28;20241;-82
2021/07/12 07:28:17;;;;;;;3.30;3.00;;;;;;;;;;4992683;28;20248;-82
2021/07/12 07:30:45;;;;;;;3.72;3.25;;;;;;;;;;4992615;28;20241;-82
2021/07/12 07:33:12;;;;;;;3.38;3.10;;;;;;;;;;4992789;28;20253;-83
2021/07/12 07:35:39;;;;;;;4.40;3.10;;;;;;;;;;4992738;28;20233;-83
2021/07/12 07:38:06;;;;;;;2.45;2.33;;;;;;;;;;4992982;28;20267;-83
2021/07/12 07:40:32;;;;;;;2.92;2.70;;;;;;;;;;4992347;28;20217;-82
2021/07/12 07:42:59;;;;;;;2.75;2.55;;;;;;;;;;5007510;28;20194;-83
2021/07/12 07:45:26;;;;;;;3.00;2.70;;;;;;;;;;5007511;28;20217;-82
2021/07/12 07:47:54;;;;;;;2.45;2.35;;;;;;;;;;4992834;28;20252;-83
2021/07/12 07:50:21;;;;;;;2.85;2.00;;;;;;;;;;4991001;28;20230;-82
2021/07/12 07:52:47;;;;;;;2.17;2.08;;;;;;;;;;4992272;28;20783;-82
2021/07/12 07:55:14;;;;;;;3.05;2.85;;;;;;;;;;5007485;28;20252;-82
2021/07/12 07:57:42;;;;;;;2.10;2.00;;;;;;;;;;4991126;28;20213;-82
2021/07/12 08:00:10;;;;;;;2.58;2.42;;;;;;;;;;4992145;28;20245;-82
2021/07/12 08:02:36;;;;;;;2.40;2.30;;;;;;;;;;4992546;28;20217;-82
2021/07/12 08:05:06;;;;;;;7.70;2.95;;;;;;;;;;5007970;28;20209;-82
2021/07/12 08:07:33;;;;;;;3.00;2.80;;;;;;;;;;4996067;28;20216;-83
2021/07/12 08:09:59;;;;;;;7.88;2.70;;;;;;;;;;4996416;28;20773;-83
2021/07/12 08:12:26;;;;;;;2.47;2.25;;;;;;;;;;4994643;28;20206;-82
2021/07/12 08:14:53;;;;;;;2.35;2.25;;;;;;;;;;5010733;28;20242;-83
2021/07/12 08:17:19;;;;;;;3.83;2.65;;;;;;;;;;4996071;28;20559;-82
2021/07/12 08:19:46;;;;;;;4.38;2.60;;;;;;;;;;4995865;28;20214;-82
2021/07/12 08:22:14;;;;;;;2.75;2.55;;;;;;;;;;5011118;28;20288;-82
2021/07/12 08:24:41;;;;;;;2.85;2.63;;;;;;;;;;4995453;28;20241;-83
2021/07/12 08:27:08;;;;;;;3.35;2.53;;;;;;;;;;4994272;28;20257;-83
2021/07/12 08:29:34;;;;;;;2.90;2.58;;;;;;;;;;5010477;28;20956;-83
2021/07/12 08:32:01;;;;;;;2.20;2.10;;;;;;;;;;4996060;28;20237;-83
2021/07/12 08:34:28;;;;;;;2.63;2.42;;;;;;;;;;4994013;28;20681;-83
2021/07/12 08:36:54;;;;;;;2.60;2.40;;;;;;;;;;4995795;28;20248;-82
2021/07/12 08:39:22;;;;;;;1.98;1.88;;;;;;;;;;5010351;28;20248;-81
2021/07/12 08:41:49;;;;;;;2.05;1.95;;;;;;;;;;5010807;28;20236;-83
2021/07/12 08:44:15;;;;;;;2.28;2.10;;;;;;;;;;4995406;28;20295;-82
2021/07/12 08:46:42;;;;;;;2.00;1.90;;;;;;;;;;4994047;28;20237;-82
2021/07/12 08:49:09;;;;;;;1.70;1.60;;;;;;;;;;4994803;28;20219;-83
2021/07/12 08:51:36;;;;;;;3.00;1.65;;;;;;;;;;4994443;28;20280;-82
2021/07/12 08:54:02;;;;;;;1.80;1.70;;;;;;;;;;4995658;28;20260;-82
2021/07/12 08:56:31;;;;;;;2.35;1.67;;;;;;;;;;4994851;28;20190;-82
2021/07/12 08:58:59;;;;;;;1.73;1.60;;;;;;;;;;4995646;28;20217;-82
2021/07/12 09:01:26;;;;;;;1.83;1.73;;;;;;;;;;5009750;28;20229;-82
2021/07/12 09:03:53;;;;;;;2.35;1.63;;;;;;;;;;4995364;28;20270;-83
2021/07/12 09:06:21;;;;;;;4.53;2.20;;;;;;;;;;4993583;28;20747;-81
2021/07/12 09:08:51;;;;;;;2.65;1.90;;;;;;;;;;4995134;28;20560;-82
2021/07/12 09:11:35;;;;;;;2.97;1.90;;;;;;;;;;4994730;28;20241;-81
2021/07/12 09:14:04;;;;;;;2.42;1.95;;;;;;;;;;4994868;28;20272;-81
2021/07/12 09:16:33;;;;;;;1.60;1.50;;;;;;;;;;5008921;28;20206;-85
2021/07/12 09:19:07;;;;;;;3.10;1.70;;;;;;;;;;5009785;28;20569;-82
2021/07/12 09:21:33;;;;;;;1.60;1.50;;;;;;;;;;4994889;28;20248;-81
2021/07/12 09:24:14;;;;;;;1.45;1.45;;;;;;;;;;5010099;28;20198;-83
2021/07/12 09:26:41;;;;;;;2.20;1.80;;;;;;;;;;4994924;28;20670;-83
2021/07/12 09:29:13;;;;;;;1.70;1.60;;;;;;;;;;5009987;28;20209;-82
2021/07/12 09:31:40;;;;;;;1.40;1.30;;;;;;;;;;4994743;28;20720;-81
2021/07/12 09:34:06;;;;;;;1.63;1.30;;;;;;;;;;4994720;28;20221;-81
2021/07/12 09:36:33;;;;;;;1.27;1.20;;;;;;;;;;4994500;28;20213;-81
2021/07/12 09:39:15;;;;;;;1.20;1.20;;;;;;;;;;4994610;28;20594;-81
2021/07/12 09:41:42;;;;;;;1.63;1.10;;;;;;;;;;4994836;28;20237;-80
2021/07/12 09:44:10;;;;;;;1.60;1.20;;;;;;;;;;4994550;28;20237;-81
2021/07/12 09:46:37;;;;;;;0.93;0.93;;;;;;;;;;4994662;28;20233;-81
2021/07/12 09:49:08;;;;;;;1.00;1.00;;;;;;;;;;5009387;28;20292;-82
2021/07/12 09:51:35;;;;;;;1.02;1.02;;;;;;;;;;4994001;28;20776;-81
2021/07/12 09:54:17;;;;;;;2.13;1.10;;;;;;;;;;4994425;28;20244;-82
2021/07/12 09:56:44;;;;;;;2.05;1.00;;;;;;;;;;4994161;28;20245;-82
2021/07/12 09:59:13;;;;;;;2.70;1.13;;;;;;;;;;4994297;28;20237;-82
2021/07/12 10:01:45;;;;;;;1.42;1.33;;;;;;;;;;4994732;28;20332;-81
2021/07/12 10:04:12;;;;;;;1.08;1.08;;;;;;;;;;4994155;28;20229;-80
2021/07/12 10:06:39;;;;;;;1.00;1.00;;;;;;;;;;4994400;28;20217;-80
2021/07/12 10:09:07;;;;;;;1.05;1.00;;;;;;;;;;4993884;28;20216;-81
2021/07/12 10:11:34;;;;;;;1.00;1.00;;;;;;;;;;4994019;28;20224;-82
2021/07/12 10:14:01;;;;;;;1.00;1.00;;;;;;;;;;4992408;28;20228;-82
2021/07/12 10:16:27;;;;;;;2.17;1.30;;;;;;;;;;5009043;28;20642;-81
2021/07/12 10:18:55;;;;;;;1.10;1.10;;;;;;;;;;5009081;28;20213;-81
2021/07/12 10:21:22;;;;;;;1.65;1.15;;;;;;;;;;4994156;28;20217;-82
2021/07/12 10:23:55;;;;;;;0.90;0.90;;;;;;;;;;4994433;28;20237;-83
2021/07/12 10:26:37;;;;;;;1.30;1.20;;;;;;;;;;4993847;28;20212;-81
2021/07/12 10:29:10;;;;;;;3.05;1.30;;;;;;;;;;4992932;28;20241;-81
2021/07/12 10:31:36;;;;;;;4.93;1.55;;;;;;;;;;4993682;28;20206;-80
2021/07/12 10:34:23;;;;;;;3.00;1.25;;;;;;;;;;4992454;28;20210;-82
2021/07/12 10:36:57;;;;;;;4.78;1.30;;;;;;;;;;4992487;28;20233;-80
2021/07/12 10:39:44;;;;;;;1.02;1.00;;;;;;;;;;4993721;28;20732;-85
2021/07/12 10:42:12;;;;;;;1.40;1.08;;;;;;;;;;4993766;28;20209;-83
2021/07/12 10:45:06;;;;;;;2.85;1.35;;;;;;;;;;5008751;28;20260;-81
2021/07/12 10:47:43;;;;;;;1.38;1.02;;;;;;;;;;4991987;28;20233;-80
2021/07/12 10:50:28;;;;;;;1.17;1.08;;;;;;;;;;4992138;28;20349;-81
2021/07/12 10:52:55;;;;;;;1.20;1.10;;;;;;;;;;4992048;28;20233;-82
2021/07/12 10:55:29;;;;;;;3.78;1.33;;;;;;;;;;4991866;28;20693;-82
2021/07/12 10:58:11;;;;;;;2.88;1.08;;;;;;;;;;4993301;28;20213;-81
2021/07/12 11:00:39;;;;;;;0.90;0.90;;;;;;;;;;4993323;28;20912;-82
2021/07/12 11:03:06;;;;;;;1.42;0.90;;;;;;;;;;4992140;28;20252;-80
2021/07/12 11:05:48;;;;;;;2.20;1.08;;;;;;;;;;4991831;28;20593;-81
2021/07/12 11:08:37;;;;;;;1.08;1.08;;;;;;;;;;4991692;28;20252;-80
2021/07/12 11:11:04;;;;;;;0.90;0.90;;;;;;;;;;4991651;28;20608;-81
2021/07/12 11:13:45;;;;;;;0.90;0.90;;;;;;;;;;4993029;28;20241;-80
2021/07/12 11:16:17;;;;;;;1.17;1.17;;;;;;;;;;4992847;28;20249;-81
2021/07/12 11:18:43;;;;;;;0.90;0.90;;;;;;;;;;4993284;28;20182;-81
2021/07/12 11:21:11;;;;;;;2.53;0.95;;;;;;;;;;5008195;28;20210;-82
2021/07/12 11:23:59;;;;;;;3.50;0.95;;;;;;;;;;4991664;28;20210;-81
2021/07/12 11:26:50;;;;;;;1.48;0.90;;;;;;;;;;4991677;28;20724;-81
2021/07/12 11:29:35;;;;;;;1.20;1.20;;;;;;;;;;4993293;28;20213;-82
2021/07/12 11:32:11;;;;;;;2.53;1.00;;;;;;;;;;5008170;28;20185;-82
2021/07/12 11:34:39;;;;;;;1.10;1.10;;;;;;;;;;4991352;28;20228;-83
2021/07/12 11:37:07;;;;;;;1.10;1.10;;;;;;;;;;4993626;28;20214;-79
2021/07/12 11:39:34;;;;;;;1.20;1.20;;;;;;;;;;5009800;28;20322;-81
2021/07/12 11:42:11;;;;;;;3.20;1.05;;;;;;;;;;4997477;28;20235;-83
2021/07/12 11:44:38;;;;;;;0.80;0.80;;;;;;;;;;4997010;28;20256;-84
2021/07/12 11:47:14;;;;;;;1.80;1.05;;;;;;;;;;5011196;28;20232;-84
2021/07/12 11:49:48;;;;;;;0.90;0.90;;;;;;;;;;4996824;28;20264;-83
2021/07/12 11:52:15;;;;;;;1.10;1.00;;;;;;;;;;4996652;28;20260;-83
2021/07/12 11:54:42;;;;;;;1.20;1.20;;;;;;;;;;5011530;28;20697;-82
2021/07/12 11:57:12;;;;;;;0.90;0.90;;;;;;;;;;5011087;28;20209;-84
2021/07/12 11:59:39;;;;;;;1.00;1.00;;;;;;;;;;4996535;28;20225;-84
2021/07/12 12:02:08;;;;;;;3.20;1.00;;;;;;;;;;4996408;28;20248;-83
2021/07/12 12:04:44;;;;;;;1.85;1.20;;;;;;;;;;4995819;28;20210;-84
2021/07/12 12:07:21;;;;;;;1.48;1.20;;;;;;;;;;4996567;28;20883;-84
2021/07/12 12:09:48;;;;;;;1.85;1.05;;;;;;;;;;4996226;28;20888;-84
2021/07/12 12:12:20;;;;;;;1.00;1.00;;;;;;;;;;4994754;28;20232;-82
2021/07/12 12:14:47;;;;;;;0.88;0.88;;;;;;;;;;5010171;28;20229;-85
2021/07/12 12:17:14;;;;;;;1.10;1.00;;;;;;;;;;5011144;28;20229;-85
2021/07/12 12:19:40;;;;;;;1.23;1.17;;;;;;;;;;5011452;28;20670;-85
2021/07/12 12:22:19;;;;;;;0.98;0.98;;;;;;;;;;4996266;28;20603;-84
2021/07/12 12:24:50;;;;;;;1.23;1.23;;;;;;;;;;4996234;28;20221;-83
2021/07/12 12:27:17;;;;;;;1.20;1.20;;;;;;;;;;4995836;28;20228;-84
2021/07/12 12:29:44;;;;;;;1.10;1.10;;;;;;;;;;5011306;28;20209;-84
2021/07/12 12:32:11;;;;;;;7.07;1.20;;;;;;;;;;4996905;28;20185;-86
2021/07/12 12:34:37;;;;;;;1.42;1.40;;;;;;;;;;4994599;28;20229;-86
2021/07/12 12:37:14;;;;;;;1.70;1.30;;;;;;;;;;4995685;28;20244;-84
2021/07/12 12:39:42;;;;;;;2.38;1.02;;;;;;;;;;4994949;28;20260;-84
2021/07/12 12:42:09;;;;;;;1.15;1.05;;;;;;;;;;4994453;28;20206;-88
2021/07/12 12:44:37;;;;;;;1.40;1.30;;;;;;;;;;4995193;28;20198;-86
2021/07/12 12:47:04;;;;;;;0.93;0.90;;;;;;;;;;4994512;28;20241;-85
2021/07/12 12:49:33;;;;;;;2.90;1.20;;;;;;;;;;4994343;28;20194;-86
2021/07/12 12:52:00;;;;;;;1.05;1.05;;;;;;;;;;4995022;28;20265;-86
2021/07/12 12:54:29;;;;;;;1.10;1.10;;;;;;;;;;4994169;28;20259;-84
2021/07/12 12:56:58;;;;;;;2.47;1.10;;;;;;;;;;4995488;28;20233;-85
2021/07/12 12:59:29;;;;;;;1.17;1.17;;;;;;;;;;4993936;28;20635;-85
2021/07/12 13:02:01;;;;;;;2.40;1.42;;;;;;;;;;4995657;28;20252;-85
2021/07/12 13:04:40;;;;;;;0.98;0.98;;;;;;;;;;4993865;28;20207;-86
2021/07/12 13:07:06;;;;;;;1.77;1.20;;;;;;;;;;4995557;28;20213;-85
2021/07/12 13:09:34;;;;;;;1.58;1.20;;;;;;;;;;4994937;28;20181;-85
2021/07/12 13:12:06;;;;;;;1.20;1.10;;;;;;;;;;4995122;28;20217;-85
2021/07/12 13:14:33;;;;;;;1.15;1.15;;;;;;;;;;4993420;28;20272;-85
2021/07/12 13:17:03;;;;;;;1.70;1.60;;;;;;;;;;5010147;28;20240;-86
2021/07/12 13:19:30;;;;;;;1.20;1.20;;;;;;;;;;5009865;28;20201;-86
2021/07/12 13:21:57;;;;;;;1.63;1.45;;;;;;;;;;4995493;28;20623;-86
2021/07/12 13:24:44;;;;;;;1.30;1.20;;;;;;;;;;5009421;28;20212;-86
2021/07/12 13:27:21;;;;;;;1.75;1.08;;;;;;;;;;4993698;28;20669;-85
2021/07/12 13:29:47;;;;;;;2.80;1.50;;;;;;;;;;4994614;28;20260;-86
2021/07/12 13:32:14;;;;;;;2.42;1.45;;;;;;;;;;4994772;28;20193;-87
2021/07/12 13:34:48;;;;;;;1.60;1.20;;;;;;;;;;4993477;28;20572;-87
2021/07/12 13:37:15;;;;;;;1.30;1.20;;;;;;;;;;5010009;28;20294;-85
2021/07/12 13:39:42;;;;;;;1.25;1.15;;;;;;;;;;4992825;28;20237;-85
2021/07/12 13:42:09;;;;;;;1.98;1.23;;;;;;;;;;5008916;28;20618;-86
2021/07/12 13:44:37;;;;;;;1.10;1.10;;;;;;;;;;4993345;28;20736;-86
2021/07/12 13:47:04;;;;;;;1.77;1.40;;;;;;;;;;5009977;28;20232;-87
2021/07/12 13:49:30;;;;;;;2.63;1.10;;;;;;;;;;4993030;28;20218;-85
2021/07/12 13:51:57;;;;;;;1.10;1.10;;;;;;;;;;5009537;28;20261;-83
2021/07/12 13:54:24;;;;;;;1.20;1.20;;;;;;;;;;4993240;28;20229;-85
2021/07/12 13:56:50;;;;;;;1.10;1.10;;;;;;;;;;4994387;28;20240;-85
2021/07/12 13:59:17;;;;;;;1.00;1.00;;;;;;;;;;5009053;28;20233;-85
2021/07/12 14:01:46;;;;;;;2.47;1.30;;;;;;;;;;4994319;28;20221;-85
2021/07/12 14:04:12;;;;;;;1.45;1.35;;;;;;;;;;4992996;28;20201;-85
2021/07/12 14:06:39;;;;;;;1.25;1.17;;;;;;;;;;4994292;28;20213;-85
2021/07/12 14:09:06;;;;;;;1.55;1.23;;;;;;;;;;4992951;28;20304;-85
2021/07/12 14:11:34;;;;;;;1.20;1.20;;;;;;;;;;4992695;28;20221;-85
2021/07/12 14:14:01;;;;;;;5.50;1.55;;;;;;;;;;4994176;28;20245;-86
2021/07/12 14:16:27;;;;;;;1.20;1.20;;;;;;;;;;4993973;28;20230;-86
2021/07/12 14:18:56;;;;;;;1.20;1.20;;;;;;;;;;4993967;28;20244;-85
2021/07/12 14:21:22;;;;;;;1.40;1.30;;;;;;;;;;4993908;28;20238;-85
2021/07/12 14:23:49;;;;;;;1.10;1.10;;;;;;;;;;4993763;28;20233;-85
2021/07/12 14:26:19;;;;;;;2.53;1.38;;;;;;;;;;4994346;28;20245;-86
2021/07/12 14:28:45;;;;;;;1.17;1.17;;;;;;;;;;4993490;28;20755;-83
2021/07/12 14:31:13;;;;;;;1.77;1.20;;;;;;;;;;5009355;28;20205;-84
2021/07/12 14:33:40;;;;;;;1.90;1.30;;;;;;;;;;4993014;28;20613;-84
2021/07/12 14:36:08;;;;;;;1.25;1.20;;;;;;;;;;4992805;28;20242;-84
2021/07/12 14:38:35;;;;;;;1.00;1.00;;;;;;;;;;5010377;28;20233;-87
2021/07/12 14:41:02;;;;;;;1.13;1.13;;;;;;;;;;4995808;28;20221;-87
2021/07/12 14:43:29;;;;;;;2.05;1.35;;;;;;;;;;5009529;28;20214;-83
2021/07/12 14:45:56;;;;;;;1.45;1.17;;;;;;;;;;5010182;28;20210;-85
2021/07/12 14:48:22;;;;;;;1.55;1.33;;;;;;;;;;4996536;28;20222;-84
2021/07/12 14:50:49;;;;;;;1.27;1.27;;;;;;;;;;4996956;28;20580;-84
2021/07/12 14:53:17;;;;;;;4.22;1.23;;;;;;;;;;5010977;28;20233;-85